Time;durP1;ratioP1;P1;durP2;ratioP2;P2;SDS_P1;SDS_P2;PMS_P1;PMS_P2;Temp;Humidity;BMP_temperature;BMP_pressure;BME280_temperature;BME280_humidity;BME280_pressure;Samples;Min_cycle;Max_cycle;Signal;HPM_P1;HPM_P2
2023/03/25 00:01:51;;;;;;;3.25;1.42;;;;;;;;;;5002855;28;20021;-69
2023/03/25 00:04:17;;;;;;;2.83;1.40;;;;;;;;;;5003700;28;20089;-73
2023/03/25 00:06:42;;;;;;;4.68;1.23;;;;;;;;;;5001949;28;20280;-78
2023/03/25 00:09:09;;;;;;;5.05;1.30;;;;;;;;;;5002277;28;20022;-73
2023/03/25 00:11:34;;;;;;;2.63;1.10;;;;;;;;;;5004325;28;20026;-75
2023/03/25 00:14:00;;;;;;;3.20;1.33;;;;;;;;;;4986297;28;20427;-78
2023/03/25 00:16:26;;;;;;;3.22;1.20;;;;;;;;;;5002541;28;20018;-64
2023/03/25 00:18:51;;;;;;;4.38;1.40;;;;;;;;;;4984828;28;20026;-67
2023/03/25 00:21:17;;;;;;;4.60;1.30;;;;;;;;;;5003748;28;20018;-74
2023/03/25 00:23:43;;;;;;;4.97;1.48;;;;;;;;;;5002195;28;20090;-74
2023/03/25 00:26:09;;;;;;;5.05;1.50;;;;;;;;;;4984874;28;20497;-71
2023/03/25 00:28:36;;;;;;;4.80;1.65;;;;;;;;;;5003847;28;20092;-63
2023/03/25 00:31:10;;;;;;;3.25;1.40;;;;;;;;;;5001638;28;20059;-71
2023/03/25 00:33:35;;;;;;;2.65;1.30;;;;;;;;;;5003775;28;20121;-68
2023/03/25 00:36:03;;;;;;;4.78;1.40;;;;;;;;;;5003433;28;20116;-72
2023/03/25 00:38:34;;;;;;;6.72;1.20;;;;;;;;;;5002625;28;20114;-68
2023/03/25 00:41:21;;;;;;;3.25;1.38;;;;;;;;;;4995703;28;20542;-81
2023/03/25 00:43:48;;;;;;;3.42;1.70;;;;;;;;;;4993800;28;20062;-71
2023/03/25 00:46:13;;;;;;;3.15;1.40;;;;;;;;;;4993644;28;20034;-61
2023/03/25 00:48:40;;;;;;;3.15;1.50;;;;;;;;;;4993590;28;20042;-77
2023/03/25 00:51:08;;;;;;;2.80;1.38;;;;;;;;;;4993704;28;20426;-70
2023/03/25 00:53:37;;;;;;;3.10;1.58;;;;;;;;;;4993538;28;20031;-67
2023/03/25 00:56:03;;;;;;;3.40;1.40;;;;;;;;;;4993598;28;20030;-61
2023/03/25 00:58:29;;;;;;;3.55;1.20;;;;;;;;;;4993412;28;20491;-65
2023/03/25 01:00:55;;;;;;;3.78;1.50;;;;;;;;;;4993282;28;20073;-73
2023/03/25 01:03:22;;;;;;;4.25;1.38;;;;;;;;;;4993329;28;20475;-67
2023/03/25 01:05:49;;;;;;;6.03;1.67;;;;;;;;;;4992949;28;20048;-63
2023/03/25 01:08:16;;;;;;;2.58;1.15;;;;;;;;;;4993169;28;20037;-79
2023/03/25 01:10:42;;;;;;;2.85;1.20;;;;;;;;;;4992888;28;20022;-61
2023/03/25 01:13:08;;;;;;;2.53;1.23;;;;;;;;;;4993000;28;20026;-62
2023/03/25 01:15:34;;;;;;;3.78;1.27;;;;;;;;;;4992977;28;20022;-65
2023/03/25 01:17:59;;;;;;;3.85;1.33;;;;;;;;;;4992921;28;20030;-67
2023/03/25 01:20:25;;;;;;;2.28;1.30;;;;;;;;;;4992908;28;20117;-65
2023/03/25 01:22:51;;;;;;;3.22;1.50;;;;;;;;;;4992806;28;20392;-78
2023/03/25 01:25:17;;;;;;;4.10;1.77;;;;;;;;;;4992620;28;20026;-61
2023/03/25 01:27:43;;;;;;;2.60;1.40;;;;;;;;;;4992680;28;20073;-62
2023/03/25 01:30:09;;;;;;;2.20;1.27;;;;;;;;;;4992521;28;20026;-63
2023/03/25 01:32:34;;;;;;;6.00;1.58;;;;;;;;;;4993658;28;20032;-67
2023/03/25 01:35:00;;;;;;;2.67;1.30;;;;;;;;;;5011425;28;20241;-61
2023/03/25 01:37:26;;;;;;;5.13;1.63;;;;;;;;;;5011498;28;20479;-65
2023/03/25 01:39:51;;;;;;;3.95;1.80;;;;;;;;;;5011811;28;20037;-76
2023/03/25 01:42:17;;;;;;;3.38;1.60;;;;;;;;;;5012066;28;20018;-65
2023/03/25 01:44:42;;;;;;;2.35;1.40;;;;;;;;;;5011753;28;20482;-69
2023/03/25 01:47:08;;;;;;;3.60;1.60;;;;;;;;;;5012008;28;20030;-71
2023/03/25 01:49:37;;;;;;;10.27;3.15;;;;;;;;;;5010671;28;20032;-75
2023/03/25 01:52:29;;;;;;;4.00;1.70;;;;;;;;;;5012114;28;20394;-61
2023/03/25 01:54:57;;;;;;;3.83;1.55;;;;;;;;;;5008212;28;20076;-62
2023/03/25 01:57:24;;;;;;;3.00;1.60;;;;;;;;;;5011493;28;20458;-65
2023/03/25 01:59:52;;;;;;;4.18;1.80;;;;;;;;;;5012145;28;20140;-65
2023/03/25 02:02:18;;;;;;;2.90;1.58;;;;;;;;;;5011938;28;20033;-65
2023/03/25 02:04:59;;;;;;;5.18;1.52;;;;;;;;;;5011645;28;20026;-64
2023/03/25 02:07:29;;;;;;;3.05;1.77;;;;;;;;;;5011115;28;20034;-62
2023/03/25 02:09:58;;;;;;;7.05;2.15;;;;;;;;;;5011023;28;20060;-64
2023/03/25 02:12:24;;;;;;;3.78;2.00;;;;;;;;;;5010907;28;20080;-66
2023/03/25 02:14:50;;;;;;;5.65;1.88;;;;;;;;;;5011349;28;20025;-65
2023/03/25 02:17:28;;;;;;;5.28;2.35;;;;;;;;;;5011697;28;20022;-66
2023/03/25 02:20:41;;;;;;;6.07;2.40;;;;;;;;;;5011585;28;20084;-61
2023/03/25 02:23:29;;;;;;;3.75;2.35;;;;;;;;;;4987973;28;20367;-63
2023/03/25 02:26:22;;;;;;;5.45;2.40;;;;;;;;;;5011535;28;20099;-61
2023/03/25 02:28:55;;;;;;;6.20;2.30;;;;;;;;;;5011436;28;20096;-74
2023/03/25 02:31:57;;;;;;;6.78;2.40;;;;;;;;;;5010620;28;20080;-63
2023/03/25 02:35:04;;;;;;;3.60;1.88;;;;;;;;;;5026805;28;20049;-68
2023/03/25 02:38:12;;;;;;;2.90;1.73;;;;;;;;;;5017143;28;20080;-64
2023/03/25 02:40:54;;;;;;;3.10;1.80;;;;;;;;;;5017684;28;20033;-64
2023/03/25 02:43:26;;;;;;;7.13;2.00;;;;;;;;;;5030877;28;20033;-62
2023/03/25 02:45:55;;;;;;;7.45;2.20;;;;;;;;;;5030861;28;20117;-66
2023/03/25 02:48:32;;;;;;;5.82;2.15;;;;;;;;;;5030945;28;20029;-68
2023/03/25 02:51:01;;;;;;;5.85;2.30;;;;;;;;;;5030971;28;20033;-80
2023/03/25 02:53:33;;;;;;;2.73;2.07;;;;;;;;;;5030923;28;20101;-79
2023/03/25 02:56:05;;;;;;;3.83;2.22;;;;;;;;;;5030713;28;20381;-79
2023/03/25 02:58:32;;;;;;;3.55;2.40;;;;;;;;;;5031155;28;20389;-76
2023/03/25 03:00:58;;;;;;;4.97;2.45;;;;;;;;;;5031018;28;20383;-77
2023/03/25 03:03:25;;;;;;;4.25;2.40;;;;;;;;;;5030691;28;20029;-70
2023/03/25 03:05:54;;;;;;;6.03;2.30;;;;;;;;;;5033016;28;20146;-72
2023/03/25 03:08:29;;;;;;;3.97;2.40;;;;;;;;;;5034111;28;20057;-69
2023/03/25 03:11:11;;;;;;;5.47;2.40;;;;;;;;;;5034491;28;20026;-71
2023/03/25 03:13:58;;;;;;;5.30;2.53;;;;;;;;;;5034477;28;20029;-73
2023/03/25 03:16:36;;;;;;;3.38;2.38;;;;;;;;;;5034104;28;20052;-74
2023/03/25 03:19:20;;;;;;;4.97;2.67;;;;;;;;;;5034030;28;20047;-81
2023/03/25 03:22:13;;;;;;;5.63;2.85;;;;;;;;;;5034839;28;20040;-68
2023/03/25 03:25:08;;;;;;;6.07;3.55;;;;;;;;;;5034228;28;20029;-66
2023/03/25 03:27:47;;;;;;;6.78;3.20;;;;;;;;;;5026074;28;20041;-65
2023/03/25 03:30:28;;;;;;;5.00;3.33;;;;;;;;;;5034577;28;20108;-78
2023/03/25 03:33:15;;;;;;;4.13;3.03;;;;;;;;;;5034031;28;20033;-69
2023/03/25 03:36:03;;;;;;;5.50;3.10;;;;;;;;;;5034301;28;20474;-68
2023/03/25 03:38:44;;;;;;;8.57;2.85;;;;;;;;;;5034441;28;20044;-64
2023/03/25 03:41:12;;;;;;;8.90;3.20;;;;;;;;;;5034585;28;20025;-63
2023/03/25 03:43:44;;;;;;;7.50;3.15;;;;;;;;;;5034154;28;20100;-80
2023/03/25 03:46:21;;;;;;;7.72;3.33;;;;;;;;;;5033759;28;20117;-79
2023/03/25 03:48:53;;;;;;;4.80;3.03;;;;;;;;;;5033496;28;20033;-76
2023/03/25 03:51:44;;;;;;;7.60;3.67;;;;;;;;;;5033368;28;20032;-63
2023/03/25 03:54:34;;;;;;;7.30;3.20;;;;;;;;;;5033483;28;20033;-81
2023/03/25 03:57:12;;;;;;;7.25;3.08;;;;;;;;;;5016103;28;20112;-68
2023/03/25 03:59:47;;;;;;;6.03;2.97;;;;;;;;;;5033941;28;20022;-73
2023/03/25 04:02:22;;;;;;;4.32;2.90;;;;;;;;;;5033844;28;20543;-80
2023/03/25 04:04:49;;;;;;;4.65;3.05;;;;;;;;;;5033799;28;20048;-70
2023/03/25 04:07:18;;;;;;;8.45;3.15;;;;;;;;;;5033765;28;20516;-64
2023/03/25 04:10:05;;;;;;;6.70;3.17;;;;;;;;;;5033519;28;20625;-70
2023/03/25 04:12:36;;;;;;;6.07;2.45;;;;;;;;;;5033151;28;20048;-80
2023/03/25 04:15:04;;;;;;;3.97;2.60;;;;;;;;;;5033290;28;20029;-66
2023/03/25 04:17:31;;;;;;;7.25;2.40;;;;;;;;;;5032445;28;20033;-63
2023/03/25 04:19:57;;;;;;;5.03;2.60;;;;;;;;;;5033478;28;20037;-64
2023/03/25 04:22:23;;;;;;;5.07;2.88;;;;;;;;;;5033327;28;20068;-64
2023/03/25 04:24:50;;;;;;;4.78;2.47;;;;;;;;;;5033684;28;20285;-63
2023/03/25 04:27:16;;;;;;;5.75;2.63;;;;;;;;;;5032925;28;20041;-63
2023/03/25 04:29:46;;;;;;;6.45;2.38;;;;;;;;;;5032822;28;20113;-64
2023/03/25 04:32:12;;;;;;;6.45;2.72;;;;;;;;;;5032713;28;20474;-76
2023/03/25 04:34:38;;;;;;;4.57;2.30;;;;;;;;;;5032153;28;20049;-78
2023/03/25 04:37:04;;;;;;;5.05;2.15;;;;;;;;;;5033004;28;20030;-75
2023/03/25 04:39:31;;;;;;;4.32;2.38;;;;;;;;;;5033300;28;20075;-66
2023/03/25 04:42:01;;;;;;;3.92;2.55;;;;;;;;;;5033339;28;20022;-63
2023/03/25 04:44:37;;;;;;;4.53;2.50;;;;;;;;;;5032946;28;20026;-64
2023/03/25 04:47:04;;;;;;;7.95;2.03;;;;;;;;;;5033399;28;20033;-62
2023/03/25 04:49:30;;;;;;;3.25;2.17;;;;;;;;;;5033173;28;20033;-64
2023/03/25 04:51:56;;;;;;;4.43;2.08;;;;;;;;;;5032773;28;20033;-64
2023/03/25 04:54:22;;;;;;;7.18;2.30;;;;;;;;;;5033067;28;20067;-72
2023/03/25 04:56:49;;;;;;;4.00;2.05;;;;;;;;;;5032232;28;20036;-68
2023/03/25 04:59:17;;;;;;;3.80;2.00;;;;;;;;;;5032436;28;20037;-67
2023/03/25 05:01:44;;;;;;;6.72;2.10;;;;;;;;;;5014388;28;20025;-62
2023/03/25 05:04:12;;;;;;;6.13;2.05;;;;;;;;;;5032583;28;20030;-66
2023/03/25 05:06:41;;;;;;;3.22;1.98;;;;;;;;;;5032386;28;20025;-64
2023/03/25 05:09:09;;;;;;;2.83;2.00;;;;;;;;;;5032390;28;20382;-64
2023/03/25 05:11:36;;;;;;;4.00;2.20;;;;;;;;;;5001227;28;20405;-73
2023/03/25 05:14:02;;;;;;;6.22;2.20;;;;;;;;;;5003785;28;20409;-63
2023/03/25 05:16:28;;;;;;;5.68;2.00;;;;;;;;;;5002450;28;20026;-62
2023/03/25 05:18:53;;;;;;;2.92;1.95;;;;;;;;;;5002115;28;20037;-65
2023/03/25 05:21:19;;;;;;;2.88;1.80;;;;;;;;;;5003196;28;20129;-63
2023/03/25 05:23:44;;;;;;;4.15;2.08;;;;;;;;;;5002069;28;20022;-72
2023/03/25 05:26:11;;;;;;;4.88;1.85;;;;;;;;;;5003905;28;20026;-74
2023/03/25 05:28:38;;;;;;;5.20;1.83;;;;;;;;;;5001089;28;20026;-76
2023/03/25 05:31:07;;;;;;;3.85;1.80;;;;;;;;;;5001395;28;20018;-79
2023/03/25 05:33:35;;;;;;;4.70;1.90;;;;;;;;;;5003767;28;20066;-75
2023/03/25 05:36:03;;;;;;;4.07;1.70;;;;;;;;;;5001911;28;20338;-80
2023/03/25 05:38:28;;;;;;;4.25;2.00;;;;;;;;;;5002447;28;20069;-80
2023/03/25 05:40:55;;;;;;;3.28;2.05;;;;;;;;;;5000638;28;20360;-80
2023/03/25 05:43:21;;;;;;;6.28;2.30;;;;;;;;;;5001563;28;20022;-80
2023/03/25 05:45:47;;;;;;;6.88;2.28;;;;;;;;;;5001750;28;20088;-78
2023/03/25 05:48:13;;;;;;;9.32;3.15;;;;;;;;;;5000295;28;20022;-77
2023/03/25 05:50:41;;;;;;;9.77;3.67;;;;;;;;;;5001679;28;20517;-75
2023/03/25 05:53:11;;;;;;;12.90;3.95;;;;;;;;;;5001651;28;20093;-72
2023/03/25 05:55:37;;;;;;;10.65;3.65;;;;;;;;;;5000938;28;20034;-70
2023/03/25 05:58:03;;;;;;;4.63;2.03;;;;;;;;;;5001767;28;20113;-79
2023/03/25 06:00:29;;;;;;;5.85;1.63;;;;;;;;;;4999893;28;20487;-78
2023/03/25 06:02:55;;;;;;;4.38;1.65;;;;;;;;;;5002125;28;20506;-77
2023/03/25 06:05:24;;;;;;;5.07;1.65;;;;;;;;;;5000580;28;20066;-79
2023/03/25 06:07:50;;;;;;;7.32;1.55;;;;;;;;;;4999836;28;20026;-77
2023/03/25 06:10:17;;;;;;;3.75;1.60;;;;;;;;;;5001723;28;20483;-79
2023/03/25 06:12:44;;;;;;;4.20;1.60;;;;;;;;;;5001019;28;20472;-72
2023/03/25 06:15:13;;;;;;;5.53;1.73;;;;;;;;;;5000224;28;20407;-63
2023/03/25 06:17:39;;;;;;;5.55;1.70;;;;;;;;;;5005992;28;20048;-80
2023/03/25 06:20:11;;;;;;;5.75;1.52;;;;;;;;;;5003138;28;20061;-68
2023/03/25 06:22:43;;;;;;;4.57;1.63;;;;;;;;;;5001907;28;20534;-64
2023/03/25 06:25:16;;;;;;;4.43;1.77;;;;;;;;;;5001771;28;20281;-64
2023/03/25 06:27:42;;;;;;;3.42;1.50;;;;;;;;;;4999295;28;20095;-78
2023/03/25 06:30:12;;;;;;;3.45;1.40;;;;;;;;;;5005305;28;20466;-63
2023/03/25 06:32:38;;;;;;;4.57;1.88;;;;;;;;;;5003295;28;20018;-77
2023/03/25 06:35:06;;;;;;;3.58;1.33;;;;;;;;;;4982535;28;20069;-64
2023/03/25 06:37:31;;;;;;;3.63;1.42;;;;;;;;;;5001312;28;20026;-73
2023/03/25 06:39:58;;;;;;;5.20;1.35;;;;;;;;;;4999930;28;20027;-67
2023/03/25 06:42:27;;;;;;;3.47;1.40;;;;;;;;;;5001431;28;20018;-63
2023/03/25 06:44:54;;;;;;;3.17;1.50;;;;;;;;;;5002145;28;20033;-78
2023/03/25 06:47:20;;;;;;;3.45;1.38;;;;;;;;;;4991826;28;20057;-69
2023/03/25 06:49:45;;;;;;;4.18;1.50;;;;;;;;;;4991803;28;20056;-75
2023/03/25 06:52:11;;;;;;;6.75;1.40;;;;;;;;;;4991903;28;20022;-69
2023/03/25 06:54:37;;;;;;;3.70;1.67;;;;;;;;;;4991891;28;20042;-72
2023/03/25 06:57:03;;;;;;;5.47;1.50;;;;;;;;;;4991779;28;20022;-63
2023/03/25 06:59:29;;;;;;;3.20;1.35;;;;;;;;;;4991657;28;20368;-63
2023/03/25 07:01:54;;;;;;;3.42;1.60;;;;;;;;;;4991979;28;20543;-71
2023/03/25 07:04:20;;;;;;;5.82;1.65;;;;;;;;;;4991657;28;20022;-77
2023/03/25 07:06:45;;;;;;;2.40;1.40;;;;;;;;;;4991702;28;20030;-65
2023/03/25 07:09:11;;;;;;;5.95;1.60;;;;;;;;;;4991842;28;20022;-71
2023/03/25 07:11:36;;;;;;;3.15;1.30;;;;;;;;;;4991523;28;20428;-61
2023/03/25 07:14:02;;;;;;;3.40;1.52;;;;;;;;;;4991728;28;20026;-69
2023/03/25 07:16:27;;;;;;;3.30;1.23;;;;;;;;;;4991361;28;20045;-65
2023/03/25 07:18:57;;;;;;;3.20;1.30;;;;;;;;;;4991548;28;20022;-65
2023/03/25 07:21:23;;;;;;;2.80;1.30;;;;;;;;;;4974937;28;20022;-66
2023/03/25 07:23:49;;;;;;;2.72;1.30;;;;;;;;;;4991509;28;20376;-65
2023/03/25 07:26:14;;;;;;;2.88;1.17;;;;;;;;;;4991819;28;20037;-64
2023/03/25 07:28:40;;;;;;;3.00;1.30;;;;;;;;;;4991530;28;20109;-62
2023/03/25 07:31:13;;;;;;;2.95;1.50;;;;;;;;;;4991420;28;20023;-71
2023/03/25 07:33:39;;;;;;;2.67;1.17;;;;;;;;;;5001229;28;20112;-61
2023/03/25 07:36:06;;;;;;;3.40;1.20;;;;;;;;;;5010874;28;20033;-65
2023/03/25 07:38:32;;;;;;;2.40;1.30;;;;;;;;;;5011181;28;20101;-62
2023/03/25 07:40:58;;;;;;;2.58;1.20;;;;;;;;;;5010947;28;20022;-75
2023/03/25 07:43:24;;;;;;;3.20;1.20;;;;;;;;;;5010694;28;20030;-68
2023/03/25 07:45:49;;;;;;;2.83;1.08;;;;;;;;;;5010813;28;20037;-62
2023/03/25 07:48:15;;;;;;;3.28;1.10;;;;;;;;;;5010885;28;20541;-66
2023/03/25 07:50:42;;;;;;;4.32;1.38;;;;;;;;;;5011163;28;20029;-65
2023/03/25 07:53:08;;;;;;;3.83;1.50;;;;;;;;;;5014590;28;20105;-61
2023/03/25 07:55:33;;;;;;;1.90;1.00;;;;;;;;;;5014413;28;20018;-65
2023/03/25 07:58:00;;;;;;;3.33;1.10;;;;;;;;;;5014912;28;20026;-68
2023/03/25 08:00:26;;;;;;;4.10;1.40;;;;;;;;;;5014650;28;20344;-66
2023/03/25 08:02:52;;;;;;;4.18;1.45;;;;;;;;;;4996649;28;20395;-63
2023/03/25 08:05:20;;;;;;;3.33;1.45;;;;;;;;;;5014153;28;20033;-61
2023/03/25 08:07:49;;;;;;;2.92;1.30;;;;;;;;;;5014187;28;20032;-65
2023/03/25 08:10:15;;;;;;;5.53;1.73;;;;;;;;;;5014370;28;20116;-60
2023/03/25 08:12:42;;;;;;;4.30;1.30;;;;;;;;;;4996501;28;20022;-68
2023/03/25 08:15:08;;;;;;;3.17;1.60;;;;;;;;;;5014020;28;20026;-66
2023/03/25 08:17:33;;;;;;;3.28;1.50;;;;;;;;;;5014037;28;20118;-67
2023/03/25 08:19:59;;;;;;;3.67;1.30;;;;;;;;;;5013918;28;20030;-79
2023/03/25 08:22:26;;;;;;;3.00;1.08;;;;;;;;;;5014136;28;20034;-76
2023/03/25 08:24:52;;;;;;;1.85;1.00;;;;;;;;;;5013878;28;20076;-75
2023/03/25 08:27:18;;;;;;;4.47;1.48;;;;;;;;;;5013676;28;20101;-78
2023/03/25 08:29:46;;;;;;;2.92;1.20;;;;;;;;;;4996118;28;20101;-78
2023/03/25 08:32:11;;;;;;;5.10;1.25;;;;;;;;;;5014102;28;20387;-81
2023/03/25 08:34:40;;;;;;;3.35;1.30;;;;;;;;;;5031549;28;20052;-74
2023/03/25 08:37:10;;;;;;;3.67;1.10;;;;;;;;;;5033453;28;20037;-65
2023/03/25 08:39:38;;;;;;;1.30;1.10;;;;;;;;;;5033338;28;20102;-70
2023/03/25 08:42:08;;;;;;;3.28;1.10;;;;;;;;;;5033608;28;20061;-62
2023/03/25 08:44:34;;;;;;;2.22;1.30;;;;;;;;;;5015470;28;20076;-67
2023/03/25 08:47:00;;;;;;;3.85;1.35;;;;;;;;;;5033315;28;20033;-71
2023/03/25 08:49:25;;;;;;;3.22;1.20;;;;;;;;;;5033450;28;20117;-71
2023/03/25 08:51:51;;;;;;;2.70;1.27;;;;;;;;;;5033307;28;20032;-68
2023/03/25 08:54:16;;;;;;;3.75;1.30;;;;;;;;;;5033518;28;20108;-64
2023/03/25 08:56:41;;;;;;;2.80;1.33;;;;;;;;;;5033166;28;20846;-67
2023/03/25 08:59:07;;;;;;;2.17;1.30;;;;;;;;;;5032883;28;20454;-69
2023/03/25 09:01:32;;;;;;;2.22;1.33;;;;;;;;;;5033022;28;20083;-66
2023/03/25 09:03:58;;;;;;;3.20;1.38;;;;;;;;;;5032146;28;20022;-81
2023/03/25 09:06:23;;;;;;;2.25;1.20;;;;;;;;;;5032755;28;20029;-64
2023/03/25 09:08:49;;;;;;;3.05;1.23;;;;;;;;;;5032905;28;20036;-62
2023/03/25 09:11:15;;;;;;;3.78;1.50;;;;;;;;;;5032809;28;20032;-67
2023/03/25 09:13:41;;;;;;;4.25;1.42;;;;;;;;;;5014758;28;20017;-66
2023/03/25 09:16:07;;;;;;;5.82;1.50;;;;;;;;;;5032800;28;20029;-62
2023/03/25 09:18:34;;;;;;;2.92;1.40;;;;;;;;;;5032667;28;20104;-67
2023/03/25 09:21:00;;;;;;;4.03;1.40;;;;;;;;;;5032462;28;20033;-74
2023/03/25 09:23:25;;;;;;;5.50;1.50;;;;;;;;;;5032655;28;20108;-63
2023/03/25 09:25:51;;;;;;;5.00;1.38;;;;;;;;;;5032430;28;20587;-62
2023/03/25 09:28:16;;;;;;;2.72;1.10;;;;;;;;;;5032355;28;20045;-62
2023/03/25 09:30:42;;;;;;;4.07;1.27;;;;;;;;;;5014824;28;20036;-82
2023/03/25 09:33:07;;;;;;;4.13;1.55;;;;;;;;;;5032001;28;20041;-79
2023/03/25 09:35:33;;;;;;;2.42;1.23;;;;;;;;;;5032241;28;20025;-65
2023/03/25 09:37:58;;;;;;;4.78;1.45;;;;;;;;;;5032057;28;20025;-62
2023/03/25 09:40:24;;;;;;;3.78;1.67;;;;;;;;;;5032171;28;20026;-64
2023/03/25 09:43:27;;;;;;;5.28;1.45;;;;;;;;;;5032012;28;20045;-61
2023/03/25 09:45:54;;;;;;;4.68;1.60;;;;;;;;;;5031973;28;20124;-63
2023/03/25 09:48:22;;;;;;;6.57;1.73;;;;;;;;;;5032357;28;20500;-81
2023/03/25 09:50:48;;;;;;;5.70;1.50;;;;;;;;;;5032053;28;20026;-80
2023/03/25 09:53:25;;;;;;;3.95;1.50;;;;;;;;;;5032313;28;20084;-63
2023/03/25 09:55:52;;;;;;;2.90;1.30;;;;;;;;;;5031766;28;20504;-64
2023/03/25 09:58:23;;;;;;;3.10;1.42;;;;;;;;;;5031903;28;20075;-64
2023/03/25 10:01:15;;;;;;;4.35;1.40;;;;;;;;;;5025503;28;20022;-76
2023/03/25 10:04:02;;;;;;;3.90;1.50;;;;;;;;;;4951200;29;20570;-68
2023/03/25 10:06:31;;;;;;;5.78;1.40;;;;;;;;;;4951339;29;20031;-66
2023/03/25 10:09:09;;;;;;;6.80;1.23;;;;;;;;;;4951303;29;20050;-64
2023/03/25 10:12:03;;;;;;;4.80;1.80;;;;;;;;;;4951063;29;20086;-70
2023/03/25 10:15:05;;;;;;;4.45;1.73;;;;;;;;;;4950953;28;20039;-61
2023/03/25 10:17:58;;;;;;;2.72;1.40;;;;;;;;;;4951275;29;20033;-60
2023/03/25 10:20:42;;;;;;;3.92;1.38;;;;;;;;;;4951042;29;20035;-67
2023/03/25 10:23:44;;;;;;;2.95;1.30;;;;;;;;;;4951223;29;20449;-61
2023/03/25 10:26:16;;;;;;;4.22;1.40;;;;;;;;;;4950851;28;20401;-65
2023/03/25 10:28:55;;;;;;;3.30;1.73;;;;;;;;;;4951213;29;20089;-61
2023/03/25 10:31:24;;;;;;;5.28;1.40;;;;;;;;;;4950921;29;20050;-75
2023/03/25 10:33:55;;;;;;;4.38;1.70;;;;;;;;;;4962089;28;20461;-78
2023/03/25 10:36:31;;;;;;;3.75;1.30;;;;;;;;;;4970230;28;20035;-66
2023/03/25 10:39:00;;;;;;;5.35;1.65;;;;;;;;;;4970107;28;20535;-70
2023/03/25 10:41:31;;;;;;;5.18;1.65;;;;;;;;;;5019120;28;20056;-64
2023/03/25 10:43:57;;;;;;;2.67;1.38;;;;;;;;;;5031603;28;20028;-63
2023/03/25 10:46:50;;;;;;;4.63;1.42;;;;;;;;;;5031188;28;20104;-65
2023/03/25 10:49:21;;;;;;;5.78;1.35;;;;;;;;;;5031366;28;20033;-70
2023/03/25 10:51:52;;;;;;;4.25;1.20;;;;;;;;;;5031153;28;20025;-66
2023/03/25 10:54:20;;;;;;;1.48;0.80;;;;;;;;;;5031286;28;20366;-71
2023/03/25 10:56:49;;;;;;;5.55;1.45;;;;;;;;;;5031446;28;20037;-76
2023/03/25 10:59:55;;;;;;;2.57;1.20;;;;;;;;;;5013277;28;20025;-65
2023/03/25 11:02:26;;;;;;;4.10;1.23;;;;;;;;;;5031130;28;20064;-65
2023/03/25 11:04:55;;;;;;;5.47;1.27;;;;;;;;;;5030993;28;20036;-66
2023/03/25 11:07:29;;;;;;;4.65;1.25;;;;;;;;;;5030966;28;20060;-79
2023/03/25 11:10:17;;;;;;;3.00;1.05;;;;;;;;;;5030695;28;20548;-80
2023/03/25 11:12:47;;;;;;;3.75;1.10;;;;;;;;;;5031189;28;20121;-80
2023/03/25 11:15:17;;;;;;;3.60;1.10;;;;;;;;;;5031280;28;20026;-77
2023/03/25 11:17:45;;;;;;;4.18;1.10;;;;;;;;;;5031018;28;20103;-80
2023/03/25 11:20:24;;;;;;;3.58;1.20;;;;;;;;;;5030866;28;20108;-81
2023/03/25 11:22:53;;;;;;;2.85;1.30;;;;;;;;;;5030953;28;20440;-82
2023/03/25 11:25:25;;;;;;;2.95;1.10;;;;;;;;;;5031026;28;20394;-75
2023/03/25 11:27:55;;;;;;;3.92;1.20;;;;;;;;;;5025570;28;20087;-72
2023/03/25 11:30:22;;;;;;;1.27;0.88;;;;;;;;;;5012354;28;20032;-71
2023/03/25 11:33:06;;;;;;;3.25;1.00;;;;;;;;;;5007209;28;20049;-70
2023/03/25 11:35:41;;;;;;;7.82;1.33;;;;;;;;;;5005573;28;20050;-69
2023/03/25 11:38:23;;;;;;;2.47;1.10;;;;;;;;;;5005378;28;20089;-72
2023/03/25 11:40:58;;;;;;;2.28;0.90;;;;;;;;;;5005541;28;20442;-73
2023/03/25 11:43:35;;;;;;;3.45;1.20;;;;;;;;;;5005531;28;20227;-78
2023/03/25 11:46:15;;;;;;;3.55;1.40;;;;;;;;;;5005360;28;20037;-71
2023/03/25 11:48:44;;;;;;;4.05;1.20;;;;;;;;;;5005325;28;20030;-80
2023/03/25 11:51:14;;;;;;;3.55;1.40;;;;;;;;;;5004906;28;20475;-78
2023/03/25 11:53:47;;;;;;;3.50;1.10;;;;;;;;;;5002063;28;20042;-66
2023/03/25 11:56:21;;;;;;;3.13;0.85;;;;;;;;;;5002343;28;20027;-75
2023/03/25 11:58:47;;;;;;;1.70;0.90;;;;;;;;;;5002913;28;20087;-63
2023/03/25 12:01:26;;;;;;;3.70;1.27;;;;;;;;;;5004491;28;20022;-72
2023/03/25 12:04:11;;;;;;;2.92;1.30;;;;;;;;;;5006091;28;20042;-62
2023/03/25 12:06:53;;;;;;;5.28;1.17;;;;;;;;;;5006670;28;20026;-72
2023/03/25 12:09:19;;;;;;;1.70;0.93;;;;;;;;;;5004191;28;20467;-76
2023/03/25 12:12:11;;;;;;;1.48;0.90;;;;;;;;;;5004147;28;20087;-70
2023/03/25 12:15:04;;;;;;;4.57;1.02;;;;;;;;;;5004245;28;20382;-66
2023/03/25 12:17:32;;;;;;;3.17;1.17;;;;;;;;;;4996381;28;20483;-69
2023/03/25 12:20:16;;;;;;;5.95;1.38;;;;;;;;;;4985423;28;20039;-70
2023/03/25 12:23:12;;;;;;;3.70;1.10;;;;;;;;;;5003847;28;20026;-70
2023/03/25 12:25:44;;;;;;;3.13;1.00;;;;;;;;;;5003818;28;20033;-65
2023/03/25 12:28:27;;;;;;;1.70;0.98;;;;;;;;;;5002845;28;20057;-76
2023/03/25 12:31:11;;;;;;;1.80;1.15;;;;;;;;;;5000393;28;20040;-64
2023/03/25 12:33:47;;;;;;;2.92;1.52;;;;;;;;;;5007254;28;20057;-64
2023/03/25 12:36:34;;;;;;;3.03;1.17;;;;;;;;;;5003623;28;20018;-63
2023/03/25 12:39:44;;;;;;;1.10;0.85;;;;;;;;;;5003282;28;20105;-63
2023/03/25 12:42:22;;;;;;;2.03;1.00;;;;;;;;;;4932808;29;20043;-70
2023/03/25 12:45:16;;;;;;;2.28;1.00;;;;;;;;;;4918351;29;20056;-63
2023/03/25 12:48:10;;;;;;;5.15;1.20;;;;;;;;;;4935030;29;20074;-81
2023/03/25 12:50:45;;;;;;;2.08;1.10;;;;;;;;;;4934578;29;20469;-76
2023/03/25 12:53:41;;;;;;;4.07;1.20;;;;;;;;;;4934953;29;20055;-67
2023/03/25 12:56:13;;;;;;;2.15;1.10;;;;;;;;;;4934812;29;20032;-66
2023/03/25 12:58:50;;;;;;;2.15;1.00;;;;;;;;;;4930778;29;20038;-72
2023/03/25 13:01:23;;;;;;;2.10;1.20;;;;;;;;;;4924802;29;20032;-67
2023/03/25 13:04:24;;;;;;;1.58;1.10;;;;;;;;;;4926411;29;20032;-72
2023/03/25 13:06:57;;;;;;;2.53;1.10;;;;;;;;;;4924682;29;20582;-69
2023/03/25 13:10:08;;;;;;;3.03;0.90;;;;;;;;;;4934048;29;20035;-76
2023/03/25 13:12:55;;;;;;;1.67;1.10;;;;;;;;;;4929558;29;20087;-68
2023/03/25 13:15:26;;;;;;;1.98;1.00;;;;;;;;;;4924859;29;20096;-69
2023/03/25 13:18:13;;;;;;;4.88;0.98;;;;;;;;;;4918229;28;20028;-65
2023/03/25 13:20:44;;;;;;;1.05;0.90;;;;;;;;;;4994078;28;20062;-64
2023/03/25 13:23:16;;;;;;;1.88;1.00;;;;;;;;;;4994414;28;20033;-67
2023/03/25 13:25:56;;;;;;;2.15;1.27;;;;;;;;;;5009043;28;20120;-63
2023/03/25 13:28:37;;;;;;;3.00;1.38;;;;;;;;;;5013760;28;20022;-63
2023/03/25 13:31:07;;;;;;;1.30;1.08;;;;;;;;;;5013372;28;20136;-65
2023/03/25 13:33:36;;;;;;;2.33;1.45;;;;;;;;;;5022451;28;20045;-71
2023/03/25 13:36:33;;;;;;;1.92;1.17;;;;;;;;;;5033357;28;20029;-67
2023/03/25 13:39:08;;;;;;;4.00;2.45;;;;;;;;;;5033163;28;20053;-62
2023/03/25 13:41:38;;;;;;;2.53;1.35;;;;;;;;;;4994091;28;20050;-64
2023/03/25 13:44:18;;;;;;;3.75;2.17;;;;;;;;;;4993971;28;20026;-66
2023/03/25 13:46:50;;;;;;;4.43;2.42;;;;;;;;;;4993738;28;20182;-62
2023/03/25 13:49:33;;;;;;;2.60;1.40;;;;;;;;;;4992949;28;20030;-63
2023/03/25 13:51:59;;;;;;;3.08;1.80;;;;;;;;;;4999172;28;20109;-65
2023/03/25 13:54:38;;;;;;;3.90;1.75;;;;;;;;;;5013568;28;20104;-62
2023/03/25 13:57:10;;;;;;;2.97;1.80;;;;;;;;;;5013366;28;20054;-62
2023/03/25 14:00:00;;;;;;;3.70;2.05;;;;;;;;;;5013530;28;20111;-81
2023/03/25 14:03:03;;;;;;;3.00;2.10;;;;;;;;;;5013385;28;20091;-79
2023/03/25 14:05:51;;;;;;;2.38;1.70;;;;;;;;;;5013352;28;20105;-77
2023/03/25 14:08:46;;;;;;;2.75;1.40;;;;;;;;;;5013554;28;20112;-75
2023/03/25 14:11:26;;;;;;;2.05;1.13;;;;;;;;;;4992325;28;20398;-76
2023/03/25 14:14:03;;;;;;;2.92;1.40;;;;;;;;;;5013390;28;20022;-80
2023/03/25 14:16:34;;;;;;;2.13;1.42;;;;;;;;;;5013045;28;20045;-80
2023/03/25 14:19:09;;;;;;;2.45;1.50;;;;;;;;;;5012803;28;20513;-76
2023/03/25 14:21:38;;;;;;;3.05;1.30;;;;;;;;;;5013156;28;20077;-66
2023/03/25 14:24:36;;;;;;;2.85;1.30;;;;;;;;;;5013154;28;20028;-69
2023/03/25 14:27:28;;;;;;;1.63;1.15;;;;;;;;;;5012442;28;20073;-70
2023/03/25 14:29:59;;;;;;;5.32;1.42;;;;;;;;;;5012266;28;20041;-72
2023/03/25 14:32:35;;;;;;;3.92;1.52;;;;;;;;;;5012100;28;20112;-72
2023/03/25 14:35:32;;;;;;;3.35;1.60;;;;;;;;;;5032274;28;20049;-65
2023/03/25 14:38:06;;;;;;;4.15;1.67;;;;;;;;;;5003441;28;20061;-75
2023/03/25 14:40:38;;;;;;;3.10;1.60;;;;;;;;;;4996382;28;20080;-65
2023/03/25 14:43:24;;;;;;;2.78;1.08;;;;;;;;;;5012935;28;20109;-67
2023/03/25 14:45:57;;;;;;;6.15;3.80;;;;;;;;;;5012538;28;20475;-67
2023/03/25 14:48:36;;;;;;;4.93;2.05;;;;;;;;;;5012949;28;20116;-73
2023/03/25 14:51:19;;;;;;;6.95;1.70;;;;;;;;;;5012682;28;20041;-83
2023/03/25 14:54:15;;;;;;;7.10;2.42;;;;;;;;;;5013057;28;20032;-75
2023/03/25 14:56:51;;;;;;;2.65;1.70;;;;;;;;;;5012992;28;20030;-74
2023/03/25 14:59:20;;;;;;;6.15;3.60;;;;;;;;;;5012954;28;20475;-76
2023/03/25 15:01:46;;;;;;;5.63;2.67;;;;;;;;;;5016481;28;20129;-77
2023/03/25 15:04:23;;;;;;;3.70;2.13;;;;;;;;;;5016831;28;20057;-81
2023/03/25 15:06:49;;;;;;;7.90;5.07;;;;;;;;;;5016758;28;20026;-76
2023/03/25 15:09:18;;;;;;;21.88;13.90;;;;;;;;;;5016695;28;20497;-77
2023/03/25 15:11:53;;;;;;;68.22;31.00;;;;;;;;;;5016725;28;20083;-78
2023/03/25 15:14:23;;;;;;;41.63;23.33;;;;;;;;;;5016749;28;20084;-75
2023/03/25 15:16:48;;;;;;;5.70;3.10;;;;;;;;;;5016282;28;20064;-77